createdAt,value
2018-02-16T00:00:47.415Z,23.27
2018-02-16T00:03:15.090Z,22.17
2018-02-16T00:05:42.791Z,24.33
2018-02-16T00:08:10.437Z,23.63
2018-02-16T00:10:38.950Z,22.37
2018-02-16T00:13:06.607Z,20.87
2018-02-16T00:15:34.313Z,22.50
2018-02-16T00:18:01.994Z,23.07
2018-02-16T00:20:30.460Z,21.97
2018-02-16T00:22:58.160Z,22.83
2018-02-16T00:25:25.822Z,23.90
2018-02-16T00:27:53.527Z,22.50
2018-02-16T00:30:21.182Z,22.53
2018-02-16T00:32:48.885Z,22.20
2018-02-16T00:35:16.538Z,21.63
2018-02-16T00:37:45.028Z,21.30
2018-02-16T00:40:12.677Z,19.63
2018-02-16T00:42:41.133Z,24.00
2018-02-16T00:45:08.796Z,21.70
2018-02-16T00:47:37.263Z,21.33
2018-02-16T00:50:04.965Z,22.37
2018-02-16T00:52:32.664Z,23.30
2018-02-16T00:55:00.316Z,21.63
2018-02-16T00:57:28.009Z,22.80
2018-02-16T00:59:55.714Z,22.10
2018-02-16T01:02:23.467Z,22.17
2018-02-16T01:04:51.119Z,21.10
2018-02-16T01:07:18.814Z,20.67
2018-02-16T01:09:46.471Z,20.63
2018-02-16T01:12:14.174Z,20.13
2018-02-16T01:14:42.602Z,19.60
2018-02-16T01:17:10.377Z,23.70
2018-02-16T01:19:38.023Z,25.20
2018-02-16T01:22:05.720Z,24.50
2018-02-16T01:24:34.173Z,22.80
2018-02-16T01:27:01.885Z,26.80
2018-02-16T01:29:30.311Z,23.57
2018-02-16T01:31:58.064Z,26.00
2018-02-16T01:34:25.728Z,25.73
2018-02-16T01:36:53.386Z,26.40
2018-02-16T01:39:21.154Z,23.93
2018-02-16T01:41:48.818Z,27.00
2018-02-16T01:44:16.527Z,30.13
2018-02-16T01:46:44.998Z,33.27
2018-02-16T01:49:13.462Z,27.10
2018-02-16T01:51:41.127Z,25.53
2018-02-16T01:54:09.599Z,23.23
2018-02-16T01:56:37.303Z,22.87
2018-02-16T01:59:05.014Z,23.77
2018-02-16T02:01:32.707Z,20.83
2018-02-16T02:04:00.411Z,20.93
2018-02-16T02:06:28.123Z,23.57
2018-02-16T02:08:55.835Z,25.60
2018-02-16T02:11:23.527Z,25.37
2018-02-16T02:13:52.007Z,25.67
2018-02-16T02:16:20.431Z,25.37
2018-02-16T02:18:48.116Z,24.60
2018-02-16T02:21:15.822Z,24.47
2018-02-16T02:23:43.489Z,24.90
2018-02-16T02:26:11.185Z,23.47
2018-02-16T02:28:38.846Z,22.23
2018-02-16T02:31:06.555Z,22.17
2018-02-16T02:33:34.979Z,22.90
2018-02-16T02:36:03.466Z,22.40
2018-02-16T02:38:31.135Z,21.17
2018-02-16T02:40:58.835Z,21.73
2018-02-16T02:43:26.491Z,22.43
2018-02-16T02:45:54.202Z,23.27
2018-02-16T02:48:21.863Z,24.30
2018-02-16T02:50:49.589Z,24.47
2018-02-16T02:53:17.261Z,23.47
2018-02-16T02:55:44.966Z,23.10
2018-02-16T02:58:12.627Z,21.77
2018-02-16T03:00:40.333Z,22.10
2018-02-16T03:03:08.099Z,21.63
2018-02-16T03:05:35.786Z,21.33
2018-02-16T03:08:03.498Z,21.70
2018-02-16T03:10:31.163Z,22.07
2018-02-16T03:12:58.862Z,21.60
2018-02-16T03:15:26.523Z,21.60
2018-02-16T03:17:54.227Z,22.37
2018-02-16T03:20:22.701Z,22.57
2018-02-16T03:22:51.179Z,21.50
2018-02-16T03:25:19.620Z,21.27
2018-02-16T03:27:47.355Z,20.30
2018-02-16T03:30:15.015Z,21.23
2018-02-16T03:32:42.723Z,21.13
2018-02-16T03:35:11.155Z,22.80
2018-02-16T03:37:38.875Z,22.10
2018-02-16T03:40:07.294Z,22.00
2018-02-16T03:42:34.999Z,22.27
2018-02-16T03:45:03.469Z,24.03
2018-02-16T03:47:31.210Z,21.63
2018-02-16T03:49:58.877Z,21.93
2018-02-16T03:52:26.582Z,23.70
2018-02-16T03:54:54.240Z,21.10
2018-02-16T03:57:21.959Z,20.07
2018-02-16T03:59:49.623Z,20.60
2018-02-16T04:02:17.327Z,22.20
2018-02-16T04:04:44.988Z,21.93
2018-02-16T04:07:12.723Z,21.23
2018-02-16T04:09:41.224Z,20.33
2018-02-16T04:12:08.935Z,22.10
2018-02-16T04:14:36.606Z,22.37
2018-02-16T04:17:04.319Z,24.53
2018-02-16T04:19:32.001Z,20.60
2018-02-16T04:21:59.712Z,23.73
2018-02-16T04:24:27.409Z,26.77
2018-02-16T04:26:55.124Z,24.27
2018-02-16T04:29:23.550Z,21.73
2018-02-16T04:31:51.261Z,20.27
2018-02-16T04:34:19.710Z,20.03
2018-02-16T04:36:47.439Z,20.70
2018-02-16T04:39:15.098Z,20.20
2018-02-16T04:41:42.811Z,26.60
2018-02-16T04:44:10.474Z,24.73
2018-02-16T04:46:38.968Z,24.10
2018-02-16T04:49:07.394Z,26.80
2018-02-16T04:51:35.102Z,23.50
2018-02-16T04:54:03.539Z,21.67
2018-02-16T04:56:31.263Z,20.53
2018-02-16T04:58:58.981Z,18.80
2018-02-16T05:01:26.645Z,19.20
2018-02-16T05:03:55.145Z,21.23
2018-02-16T05:06:22.831Z,19.37
2018-02-16T05:08:50.542Z,20.00
2018-02-16T05:11:18.215Z,20.40
2018-02-16T05:13:47.763Z,18.10
2018-02-16T05:16:15.422Z,18.80
2018-02-16T05:18:43.171Z,19.43
2018-02-16T05:21:10.895Z,18.63
2018-02-16T05:23:39.374Z,20.80
2018-02-16T05:26:07.808Z,18.80
2018-02-16T05:28:35.517Z,19.73
2018-02-16T05:31:03.954Z,20.73
2018-02-16T05:33:31.667Z,18.83
2018-02-16T05:35:59.326Z,18.93
2018-02-16T05:38:27.031Z,18.67
2018-02-16T05:40:54.690Z,20.87
2018-02-16T05:43:22.430Z,18.07
2018-02-16T05:45:50.091Z,18.77
2018-02-16T05:48:17.806Z,19.40
2018-02-16T05:50:46.234Z,18.03
2018-02-16T05:53:13.944Z,18.47
2018-02-16T05:55:42.367Z,18.17
2018-02-16T05:58:10.086Z,17.40
2018-02-16T06:00:38.536Z,17.50
2018-02-16T06:03:06.265Z,17.70
2018-02-16T06:05:33.935Z,23.17
2018-02-16T06:08:01.676Z,25.17
2018-02-16T06:10:29.343Z,19.00
2018-02-16T06:12:57.052Z,35.93
2018-02-16T06:15:24.731Z,19.53
2018-02-16T06:17:53.235Z,17.70
2018-02-16T06:20:20.979Z,16.33
2018-02-16T06:22:48.751Z,17.87
2018-02-16T06:25:16.415Z,18.90
2018-02-16T06:27:44.115Z,18.73
2018-02-16T06:30:11.782Z,20.50
2018-02-16T06:32:39.491Z,16.37
2018-02-16T06:35:07.194Z,17.67
2018-02-16T06:37:34.902Z,16.07
2018-02-16T06:40:02.566Z,15.53
2018-02-16T06:42:30.270Z,18.00
2018-02-16T06:44:57.942Z,20.70
2018-02-16T06:47:25.649Z,28.20
2018-02-16T06:49:53.315Z,18.20
2018-02-16T06:52:21.015Z,16.60
2018-02-16T06:54:48.678Z,17.10
2018-02-16T06:57:16.396Z,15.17
2018-02-16T06:59:44.058Z,17.10
2018-02-16T07:02:11.758Z,17.60
2018-02-16T07:04:39.420Z,17.33
2018-02-16T07:07:07.126Z,21.20
2018-02-16T07:09:34.790Z,17.50
2018-02-16T07:12:02.454Z,15.30
2018-02-16T07:14:30.155Z,22.17
2018-02-16T07:16:57.830Z,18.13
2018-02-16T07:19:26.306Z,17.60
2018-02-16T07:21:54.010Z,21.13
2018-02-16T07:24:21.711Z,17.40
2018-02-16T07:26:49.366Z,18.47
2018-02-16T07:29:17.090Z,18.97
2018-02-16T07:31:44.758Z,17.40
2018-02-16T07:34:12.470Z,22.10
2018-02-16T07:36:40.954Z,20.37
2018-02-16T07:39:08.691Z,18.90
2018-02-16T07:41:36.370Z,17.70
2018-02-16T07:44:04.899Z,17.40
2018-02-16T07:46:32.561Z,16.27
2018-02-16T07:49:00.266Z,15.33
2018-02-16T07:51:28.703Z,16.30
2018-02-16T07:53:57.256Z,17.60
2018-02-16T07:56:24.937Z,16.53
2018-02-16T07:58:52.642Z,15.30
2018-02-16T08:01:21.121Z,15.63
2018-02-16T08:03:49.605Z,16.63
2018-02-16T08:06:18.043Z,14.70
2018-02-16T08:08:45.755Z,14.93
2018-02-16T08:11:13.415Z,15.83
2018-02-16T08:13:41.899Z,17.17
2018-02-16T08:16:09.570Z,15.60
2018-02-16T08:18:37.271Z,15.30
2018-02-16T08:21:04.942Z,17.77
2018-02-16T08:23:32.654Z,16.70
2018-02-16T08:26:00.321Z,16.20
2018-02-16T08:28:28.039Z,17.27
2018-02-16T08:30:56.465Z,18.27
2018-02-16T08:33:24.166Z,17.03
2018-02-16T08:35:51.843Z,19.73
2018-02-16T08:38:20.314Z,18.37
2018-02-16T08:40:48.742Z,16.63
2018-02-16T08:43:16.451Z,16.70
2018-02-16T08:45:44.878Z,16.23
2018-02-16T08:48:12.587Z,17.43
2018-02-16T08:50:41.019Z,16.50
2018-02-16T08:53:08.725Z,17.13
2018-02-16T08:55:37.151Z,17.60
2018-02-16T08:58:04.872Z,14.93
2018-02-16T09:00:33.439Z,18.77
2018-02-16T09:03:01.920Z,17.47
2018-02-16T09:05:30.355Z,17.70
2018-02-16T09:07:58.043Z,18.37
2018-02-16T09:10:25.761Z,17.37
2018-02-16T09:12:53.435Z,16.37
2018-02-16T09:15:21.146Z,17.70
2018-02-16T09:17:49.601Z,15.90
2018-02-16T09:20:17.339Z,15.70
2018-02-16T09:22:44.996Z,17.37
2018-02-16T09:25:12.707Z,16.80
2018-02-16T09:27:40.390Z,17.33
2018-02-16T09:30:08.897Z,16.50
2018-02-16T09:32:37.366Z,17.20
2018-02-16T09:35:05.086Z,17.03
2018-02-16T09:37:32.755Z,18.40
2018-02-16T09:40:00.467Z,17.13
2018-02-16T09:42:28.134Z,17.83
2018-02-16T09:44:55.844Z,16.67
2018-02-16T09:47:23.502Z,17.30
2018-02-16T09:49:51.302Z,17.43
2018-02-16T09:52:18.967Z,20.53
2018-02-16T09:54:46.663Z,19.30
2018-02-16T09:57:15.093Z,18.00
2018-02-16T09:59:42.811Z,18.40
2018-02-16T10:02:10.471Z,18.13
2018-02-16T10:04:38.224Z,18.27
2018-02-16T10:07:06.660Z,20.00
2018-02-16T10:09:34.366Z,17.47
2018-02-16T10:12:02.062Z,17.30
2018-02-16T10:14:29.776Z,16.43
2018-02-16T10:16:58.211Z,15.60
2018-02-16T10:19:25.938Z,18.07
2018-02-16T10:21:53.604Z,15.20
2018-02-16T10:24:21.320Z,16.10
2018-02-16T10:26:48.986Z,17.37
2018-02-16T10:29:17.454Z,16.47
2018-02-16T10:31:45.119Z,15.40
2018-02-16T10:34:13.597Z,15.60
2018-02-16T10:36:41.311Z,15.77
2018-02-16T10:39:09.025Z,16.93
2018-02-16T10:41:37.450Z,15.20
2018-02-16T10:44:05.163Z,20.67
2018-02-16T10:46:33.593Z,15.43
2018-02-16T10:49:01.310Z,16.00
2018-02-16T10:51:29.747Z,15.80
2018-02-16T10:53:57.455Z,16.10
2018-02-16T10:56:25.122Z,15.60
2018-02-16T10:58:52.843Z,13.97
2018-02-16T11:01:20.511Z,13.70
2018-02-16T11:03:54.606Z,16.70
2018-02-16T11:06:27.955Z,14.27
2018-02-16T11:09:01.432Z,18.03
2018-02-16T11:11:29.118Z,16.70
2018-02-16T11:13:56.830Z,13.30
2018-02-16T11:16:25.296Z,13.77
2018-02-16T11:18:53.012Z,15.17
2018-02-16T11:21:20.691Z,16.57
2018-02-16T11:23:48.405Z,15.87
2018-02-16T11:26:16.071Z,17.10
2018-02-16T11:28:43.752Z,16.80
2018-02-16T11:31:11.462Z,17.90
2018-02-16T11:33:39.122Z,19.50
2018-02-16T11:36:06.827Z,18.30
2018-02-16T11:38:34.482Z,18.50
2018-02-16T11:41:02.188Z,19.50
2018-02-16T11:43:29.880Z,26.80
2018-02-16T11:45:57.701Z,13.13
2018-02-16T11:48:25.367Z,15.23
2018-02-16T11:50:53.075Z,14.93
2018-02-16T11:53:20.762Z,15.90
2018-02-16T11:55:48.460Z,16.33
2018-02-16T11:58:16.905Z,16.73
2018-02-16T12:00:44.606Z,17.00
2018-02-16T12:03:13.039Z,17.07
2018-02-16T12:05:40.743Z,15.53
2018-02-16T12:08:09.165Z,18.67
2018-02-16T12:10:36.870Z,21.70
2018-02-16T12:13:04.544Z,18.60
2018-02-16T12:15:33.089Z,18.20
2018-02-16T12:18:00.751Z,23.10
2018-02-16T12:20:28.451Z,17.87
2018-02-16T12:22:56.984Z,18.60
2018-02-16T12:25:24.699Z,17.90
2018-02-16T12:27:52.383Z,17.23
2018-02-16T12:30:20.125Z,16.17
2018-02-16T12:32:47.796Z,16.67
2018-02-16T12:35:15.509Z,15.93
2018-02-16T12:37:43.164Z,19.27
2018-02-16T12:40:10.875Z,17.30
2018-02-16T12:42:38.540Z,17.80
2018-02-16T12:45:06.249Z,16.87
2018-02-16T12:47:33.915Z,16.10
2018-02-16T12:50:02.398Z,14.37
2018-02-16T12:52:30.823Z,15.57
2018-02-16T12:54:58.531Z,16.03
2018-02-16T12:57:26.194Z,69.10
2018-02-16T12:59:54.674Z,25.07
2018-02-16T13:02:23.107Z,29.03
2018-02-16T13:04:50.798Z,15.80
2018-02-16T13:07:18.518Z,15.00
2018-02-16T13:09:46.195Z,14.80
2018-02-16T13:12:13.935Z,16.60
2018-02-16T13:14:41.590Z,15.13
2018-02-16T13:17:09.295Z,17.27
2018-02-16T13:19:37.023Z,16.10
2018-02-16T13:22:04.791Z,14.67
2018-02-16T13:24:32.472Z,14.93
2018-02-16T13:27:00.179Z,14.97
2018-02-16T13:29:27.850Z,15.47
2018-02-16T13:31:55.555Z,14.83
2018-02-16T13:34:23.223Z,13.73
2018-02-16T13:36:50.962Z,14.43
2018-02-16T13:39:18.663Z,13.93
2018-02-16T13:41:47.150Z,11.87
2018-02-16T13:44:14.803Z,13.70
2018-02-16T13:46:43.280Z,12.90
2018-02-16T13:49:10.942Z,11.97
2018-02-16T13:51:39.403Z,17.83
2018-02-16T13:54:07.930Z,14.43
2018-02-16T13:56:35.582Z,15.33
2018-02-16T13:59:03.283Z,15.77
2018-02-16T14:01:30.946Z,16.40
2018-02-16T14:03:58.653Z,13.50
2018-02-16T14:06:26.323Z,16.07
2018-02-16T14:08:54.067Z,17.50
2018-02-16T14:11:21.735Z,14.40
2018-02-16T14:13:49.442Z,16.67
2018-02-16T14:16:17.112Z,17.80
2018-02-16T14:18:44.824Z,15.17
2018-02-16T14:21:12.498Z,17.90
2018-02-16T14:23:40.206Z,17.23
2018-02-16T14:26:08.634Z,16.97
2018-02-16T14:28:36.376Z,19.60
2018-02-16T14:31:04.039Z,18.47
2018-02-16T14:33:31.702Z,15.57
2018-02-16T14:35:59.418Z,16.90
2018-02-16T14:38:27.894Z,16.57
2018-02-16T14:40:55.606Z,16.57
2018-02-16T14:43:23.266Z,17.33
2018-02-16T14:45:51.014Z,18.60
2018-02-16T14:48:18.670Z,19.30
2018-02-16T14:50:46.410Z,20.80
2018-02-16T14:53:14.831Z,20.17
2018-02-16T14:55:42.538Z,18.47
2018-02-16T14:58:10.966Z,18.13
2018-02-16T15:00:38.669Z,20.00
2018-02-16T15:03:06.326Z,19.03
2018-02-16T15:05:34.039Z,19.80
2018-02-16T15:08:01.703Z,20.73
2018-02-16T15:10:29.415Z,22.70
2018-02-16T15:12:57.840Z,20.83
2018-02-16T15:15:25.548Z,21.07
2018-02-16T15:17:53.243Z,21.00
2018-02-16T15:20:20.962Z,20.73
2018-02-16T15:22:48.628Z,20.77
2018-02-16T15:25:17.116Z,21.00
2018-02-16T15:27:45.547Z,18.80
2018-02-16T15:30:13.246Z,20.20
2018-02-16T15:32:41.673Z,18.43
2018-02-16T15:35:09.395Z,20.50
2018-02-16T15:37:37.815Z,22.37
2018-02-16T15:40:05.480Z,20.10
2018-02-16T15:42:33.184Z,18.87
2018-02-16T15:45:01.627Z,20.67
2018-02-16T15:47:29.326Z,20.07
2018-02-16T15:49:57.751Z,20.17
2018-02-16T15:52:25.490Z,20.17
2018-02-16T15:54:53.160Z,19.50
2018-02-16T15:57:20.878Z,17.90
2018-02-16T15:59:49.309Z,20.47
2018-02-16T16:02:17.007Z,20.47
2018-02-16T16:04:44.674Z,19.90
2018-02-16T16:07:13.147Z,18.13
2018-02-16T16:09:40.819Z,19.10
2018-02-16T16:12:09.303Z,19.17
2018-02-16T16:14:37.731Z,21.40
2018-02-16T16:17:05.462Z,21.67
2018-02-16T16:19:33.127Z,23.07
2018-02-16T16:22:00.862Z,18.93
2018-02-16T16:24:29.288Z,19.50
2018-02-16T16:26:56.944Z,29.83
2018-02-16T16:29:24.662Z,24.67
2018-02-16T16:31:53.102Z,19.53
2018-02-16T16:34:20.830Z,19.30
2018-02-16T16:36:48.539Z,19.90
2018-02-16T16:39:16.294Z,18.77
2018-02-16T16:41:43.967Z,19.33
2018-02-16T16:44:12.450Z,19.00
2018-02-16T16:46:40.882Z,19.90
2018-02-16T16:49:08.618Z,20.90
2018-02-16T16:51:36.282Z,20.50
2018-02-16T16:54:04.005Z,20.67
2018-02-16T16:56:32.464Z,23.47
2018-02-16T16:59:00.172Z,23.27
2018-02-16T17:01:27.835Z,23.37
2018-02-16T17:03:55.547Z,20.70
2018-02-16T17:06:23.245Z,18.13
2018-02-16T17:08:50.956Z,21.43
2018-02-16T17:11:18.666Z,22.37
2018-02-16T17:13:46.327Z,21.50
2018-02-16T17:16:14.082Z,19.73
2018-02-16T17:18:41.794Z,19.70
2018-02-16T17:21:09.511Z,18.90
2018-02-16T17:23:37.185Z,16.63
2018-02-16T17:26:04.894Z,19.60
2018-02-16T17:28:32.562Z,19.97
2018-02-16T17:31:01.039Z,20.87
2018-02-16T17:33:29.467Z,20.70
2018-02-16T17:35:57.174Z,22.27
2018-02-16T17:38:25.606Z,21.27
2018-02-16T17:40:53.334Z,21.23
2018-02-16T17:43:20.999Z,20.20
2018-02-16T17:45:48.705Z,20.37
2018-02-16T17:48:16.459Z,19.60
2018-02-16T17:50:44.178Z,17.20
2018-02-16T17:53:11.842Z,18.73
2018-02-16T17:55:39.550Z,15.13
2018-02-16T17:58:07.219Z,16.03
2018-02-16T18:00:34.923Z,15.07
2018-02-16T18:03:02.586Z,14.67
2018-02-16T18:05:30.326Z,12.67
2018-02-16T18:07:58.772Z,13.60
2018-02-16T18:10:26.504Z,13.23
2018-02-16T18:12:54.178Z,13.97
2018-02-16T18:15:23.070Z,13.03
2018-02-16T18:17:50.759Z,13.93
2018-02-16T18:20:19.196Z,15.07
2018-02-16T18:22:46.947Z,15.23
2018-02-16T18:25:14.618Z,16.33
2018-02-16T18:27:43.569Z,14.80
2018-02-16T18:30:11.286Z,13.30
2018-02-16T18:32:38.994Z,15.30
2018-02-16T18:35:06.668Z,14.63
2018-02-16T18:37:34.391Z,14.33
2018-02-16T18:40:02.846Z,14.83
2018-02-16T18:42:30.603Z,13.93
2018-02-16T18:44:58.271Z,14.03
2018-02-16T18:47:25.981Z,13.60
2018-02-16T18:49:53.657Z,14.30
2018-02-16T18:52:22.141Z,14.87
2018-02-16T18:54:49.981Z,12.70
2018-02-16T18:57:17.710Z,14.73
2018-02-16T18:59:46.151Z,15.27
2018-02-16T19:02:13.854Z,13.90
2018-02-16T19:04:42.314Z,16.30
2018-02-16T19:07:10.102Z,16.00
2018-02-16T19:09:38.529Z,16.83
2018-02-16T19:12:06.363Z,15.20
2018-02-16T19:14:34.034Z,16.80
2018-02-16T19:17:01.747Z,14.57
2018-02-16T19:19:29.608Z,14.50
2018-02-16T19:21:58.103Z,13.50
2018-02-16T19:24:26.532Z,14.40
2018-02-16T19:26:54.393Z,14.40
2018-02-16T19:29:22.094Z,16.53
2018-02-16T19:31:50.579Z,16.43
2018-02-16T19:34:19.019Z,15.20
2018-02-16T19:36:47.124Z,15.83
2018-02-16T19:39:15.302Z,14.47
2018-02-16T19:41:43.106Z,16.87
2018-02-16T19:44:10.776Z,17.00
2018-02-16T19:46:38.517Z,17.97
2018-02-16T19:49:06.189Z,19.30
2018-02-16T19:51:33.931Z,18.77
2018-02-16T19:54:02.180Z,17.07
2018-02-16T19:56:30.755Z,16.47
2018-02-16T19:58:59.197Z,15.73
2018-02-16T20:01:26.918Z,15.60
2018-02-16T20:03:54.992Z,15.07
2018-02-16T20:06:23.539Z,16.20
2018-02-16T20:08:52.388Z,13.37
2018-02-16T20:11:20.388Z,11.40
2018-02-16T20:13:48.099Z,12.90
2018-02-16T20:16:15.834Z,12.83
2018-02-16T20:18:43.514Z,11.80
2018-02-16T20:21:11.475Z,12.03
2018-02-16T20:23:39.199Z,11.63
2018-02-16T20:26:07.820Z,12.30
2018-02-16T20:28:35.514Z,12.40
2018-02-16T20:31:03.224Z,12.63
2018-02-16T20:33:30.907Z,12.80
2018-02-16T20:35:58.620Z,13.13
2018-02-16T20:38:27.278Z,13.73
2018-02-16T20:40:54.999Z,15.17
2018-02-16T20:43:22.723Z,15.20
2018-02-16T20:45:51.154Z,14.37
2018-02-16T20:48:18.899Z,12.40
2018-02-16T20:50:46.609Z,11.50
2018-02-16T20:53:15.127Z,13.83
2018-02-16T20:55:42.965Z,13.20
2018-02-16T20:58:10.708Z,15.87
2018-02-16T21:00:38.387Z,13.77
2018-02-16T21:03:06.881Z,15.13
2018-02-16T21:05:34.597Z,14.70
2018-02-16T21:08:02.339Z,14.03
2018-02-16T21:10:30.023Z,13.87
2018-02-16T21:12:57.735Z,12.70
2018-02-16T21:15:25.464Z,12.90
2018-02-16T21:17:53.978Z,12.60
2018-02-16T21:20:21.650Z,13.00
2018-02-16T21:22:49.388Z,11.80
2018-02-16T21:25:17.126Z,13.50
2018-02-16T21:27:44.863Z,11.13
2018-02-16T21:30:12.551Z,11.80
2018-02-16T21:32:41.046Z,10.97
2018-02-16T21:35:08.760Z,11.20
2018-02-16T21:37:36.474Z,12.20
2018-02-16T21:40:04.230Z,10.13
2018-02-16T21:42:31.950Z,11.10
2018-02-16T21:44:59.622Z,10.70
2018-02-16T21:47:28.098Z,10.80
2018-02-16T21:49:55.762Z,11.10
2018-02-16T21:52:24.243Z,13.67
2018-02-16T21:54:52.684Z,14.43
2018-02-16T21:57:20.410Z,13.83
2018-02-16T21:59:48.093Z,13.30
2018-02-16T22:02:15.814Z,12.77
2018-02-16T22:04:43.491Z,12.10
2018-02-16T22:07:11.197Z,12.63
2018-02-16T22:09:38.859Z,11.33
2018-02-16T22:12:06.581Z,12.67
2018-02-16T22:14:34.255Z,13.23
2018-02-16T22:17:02.017Z,14.30
2018-02-16T22:19:29.683Z,14.73
2018-02-16T22:21:57.394Z,14.23
2018-02-16T22:24:25.823Z,14.80
2018-02-16T22:26:53.547Z,14.80
2018-02-16T22:29:21.232Z,14.77
2018-02-16T22:31:48.949Z,14.23
2018-02-16T22:34:17.418Z,18.97
2018-02-16T22:36:45.159Z,20.40
2018-02-16T22:39:12.838Z,20.10
2018-02-16T22:41:41.319Z,14.97
2018-02-16T22:44:09.766Z,12.97
2018-02-16T22:46:37.486Z,13.07
2018-02-16T22:49:05.164Z,11.97
2018-02-16T22:51:33.711Z,10.87
2018-02-16T22:54:01.421Z,11.10
2018-02-16T22:56:29.151Z,11.03
2018-02-16T22:58:56.862Z,11.00
2018-02-16T23:01:24.534Z,9.87
2018-02-16T23:03:53.056Z,11.30
2018-02-16T23:06:20.743Z,11.20
2018-02-16T23:08:48.503Z,10.87
2018-02-16T23:11:16.173Z,11.57
2018-02-16T23:13:43.885Z,10.63
2018-02-16T23:16:11.583Z,10.30
2018-02-16T23:18:39.306Z,10.63
2018-02-16T23:21:07.779Z,10.37
2018-02-16T23:23:35.514Z,9.70
2018-02-16T23:26:03.959Z,10.27
2018-02-16T23:28:31.686Z,10.60
2018-02-16T23:30:59.359Z,10.70
2018-02-16T23:33:27.107Z,10.90
2018-02-16T23:35:54.783Z,10.80
2018-02-16T23:38:22.505Z,10.33
2018-02-16T23:40:50.192Z,11.70
2018-02-16T23:43:17.852Z,11.37
2018-02-16T23:45:45.532Z,10.30
2018-02-16T23:48:14.027Z,10.00
2018-02-16T23:50:41.703Z,10.83
2018-02-16T23:53:09.422Z,10.00
2018-02-16T23:55:37.863Z,11.00
2018-02-16T23:58:05.588Z,10.03
